Everton, United Kingdom
Current Conditions -  °F | °C
As of 4:20 PM on Tuesday 21 Oct 2014 (Local Time) from EGCN Reporting Station
Few Clouds Few Clouds  
Wind Chill: 52°   Ceiling: Unl
Heat Index: 52°   Visibility: 6mi
Dew Point: 37°   Wind: 26mph
Humidity: 58%   Direction: 280°W
Pressure: 29.71"   Gusts: 41mph
Location:  53.4°N, 0.9°W
Report Text: EGCN 211520Z 28023G36KT 9000 FEW033 11/03 Q1006
Loading
Personal Weather Stations






























Interactive Weather Map
Tropical Storm Tracking
New forecast layout! Learn more

10-Day Weather Forecast

Advertisements
Track Severe Weather on mobile